sensor_id;sensor_type;location;lat;lon;timestamp;P1;durP1;ratioP1;P2;durP2;ratioP2
42084;SDS011;27746;52.228;20.890;2023-07-13T00:01:45;12.57;;;8.82;;
42084;SDS011;27746;52.228;20.890;2023-07-13T00:04:14;11.90;;;8.18;;
42084;SDS011;27746;52.228;20.890;2023-07-13T00:06:41;13.50;;;8.90;;
42084;SDS011;27746;52.228;20.890;2023-07-13T00:09:09;12.70;;;8.48;;
42084;SDS011;27746;52.228;20.890;2023-07-13T00:11:37;14.27;;;9.43;;
42084;SDS011;27746;52.228;20.890;2023-07-13T00:14:06;15.27;;;9.18;;
42084;SDS011;27746;52.228;20.890;2023-07-13T00:16:34;14.10;;;9.75;;
42084;SDS011;27746;52.228;20.890;2023-07-13T00:19:01;12.38;;;7.88;;
42084;SDS011;27746;52.228;20.890;2023-07-13T00:21:28;14.45;;;8.98;;
42084;SDS011;27746;52.228;20.890;2023-07-13T00:23:55;16.00;;;9.05;;
42084;SDS011;27746;52.228;20.890;2023-07-13T00:26:22;15.10;;;7.97;;
42084;SDS011;27746;52.228;20.890;2023-07-13T00:28:49;16.15;;;8.52;;
42084;SDS011;27746;52.228;20.890;2023-07-13T00:31:18;14.15;;;8.55;;
42084;SDS011;27746;52.228;20.890;2023-07-13T00:33:44;15.35;;;8.48;;
42084;SDS011;27746;52.228;20.890;2023-07-13T00:36:12;12.13;;;8.23;;
42084;SDS011;27746;52.228;20.890;2023-07-13T00:38:39;13.77;;;8.93;;
42084;SDS011;27746;52.228;20.890;2023-07-13T00:41:06;15.73;;;9.27;;
42084;SDS011;27746;52.228;20.890;2023-07-13T00:43:33;12.05;;;7.35;;
42084;SDS011;27746;52.228;20.890;2023-07-13T00:46:15;11.90;;;8.82;;
42084;SDS011;27746;52.228;20.890;2023-07-13T00:48:46;11.20;;;7.97;;
42084;SDS011;27746;52.228;20.890;2023-07-13T00:51:27;19.48;;;9.50;;
42084;SDS011;27746;52.228;20.890;2023-07-13T00:53:58;13.32;;;9.20;;
42084;SDS011;27746;52.228;20.890;2023-07-13T00:56:29;12.70;;;8.70;;
42084;SDS011;27746;52.228;20.890;2023-07-13T00:58:57;14.70;;;8.98;;
42084;SDS011;27746;52.228;20.890;2023-07-13T01:01:26;11.35;;;8.73;;
42084;SDS011;27746;52.228;20.890;2023-07-13T01:03:53;14.02;;;8.75;;
42084;SDS011;27746;52.228;20.890;2023-07-13T01:06:22;13.85;;;9.45;;
42084;SDS011;27746;52.228;20.890;2023-07-13T01:08:49;14.07;;;9.60;;
42084;SDS011;27746;52.228;20.890;2023-07-13T01:11:18;16.67;;;8.90;;
42084;SDS011;27746;52.228;20.890;2023-07-13T01:13:47;16.05;;;9.77;;
42084;SDS011;27746;52.228;20.890;2023-07-13T01:16:15;15.18;;;9.23;;
42084;SDS011;27746;52.228;20.890;2023-07-13T01:18:49;14.93;;;8.80;;
42084;SDS011;27746;52.228;20.890;2023-07-13T01:21:17;13.75;;;9.15;;
42084;SDS011;27746;52.228;20.890;2023-07-13T01:23:45;14.88;;;8.55;;
42084;SDS011;27746;52.228;20.890;2023-07-13T01:26:12;13.25;;;9.23;;
42084;SDS011;27746;52.228;20.890;2023-07-13T01:28:39;13.45;;;9.05;;
42084;SDS011;27746;52.228;20.890;2023-07-13T01:31:06;12.00;;;8.85;;
42084;SDS011;27746;52.228;20.890;2023-07-13T01:33:33;12.77;;;8.50;;
42084;SDS011;27746;52.228;20.890;2023-07-13T01:36:01;16.60;;;9.38;;
42084;SDS011;27746;52.228;20.890;2023-07-13T01:38:29;13.25;;;8.75;;
42084;SDS011;27746;52.228;20.890;2023-07-13T01:40:56;14.32;;;9.13;;
42084;SDS011;27746;52.228;20.890;2023-07-13T01:43:23;12.60;;;8.93;;
42084;SDS011;27746;52.228;20.890;2023-07-13T01:45:50;12.77;;;8.55;;
42084;SDS011;27746;52.228;20.890;2023-07-13T01:48:17;13.25;;;7.88;;
42084;SDS011;27746;52.228;20.890;2023-07-13T01:50:45;14.18;;;9.23;;
42084;SDS011;27746;52.228;20.890;2023-07-13T01:53:13;12.23;;;9.05;;
42084;SDS011;27746;52.228;20.890;2023-07-13T01:55:42;13.60;;;9.68;;
42084;SDS011;27746;52.228;20.890;2023-07-13T01:58:08;15.27;;;10.15;;
42084;SDS011;27746;52.228;20.890;2023-07-13T02:00:36;14.32;;;10.05;;
42084;SDS011;27746;52.228;20.890;2023-07-13T02:03:03;16.02;;;10.25;;
42084;SDS011;27746;52.228;20.890;2023-07-13T02:05:30;15.15;;;10.00;;
42084;SDS011;27746;52.228;20.890;2023-07-13T02:07:57;17.23;;;8.88;;
42084;SDS011;27746;52.228;20.890;2023-07-13T02:10:24;14.73;;;10.05;;
42084;SDS011;27746;52.228;20.890;2023-07-13T02:12:54;16.38;;;10.05;;
42084;SDS011;27746;52.228;20.890;2023-07-13T02:15:21;14.55;;;10.35;;
42084;SDS011;27746;52.228;20.890;2023-07-13T02:17:48;14.13;;;10.18;;
42084;SDS011;27746;52.228;20.890;2023-07-13T02:20:16;17.80;;;10.23;;
42084;SDS011;27746;52.228;20.890;2023-07-13T02:22:42;14.00;;;9.75;;
42084;SDS011;27746;52.228;20.890;2023-07-13T02:25:09;16.55;;;10.65;;
42084;SDS011;27746;52.228;20.890;2023-07-13T02:27:36;15.93;;;9.85;;
42084;SDS011;27746;52.228;20.890;2023-07-13T02:30:06;16.27;;;9.77;;
42084;SDS011;27746;52.228;20.890;2023-07-13T02:32:33;16.88;;;11.13;;
42084;SDS011;27746;52.228;20.890;2023-07-13T02:35:01;16.63;;;10.13;;
42084;SDS011;27746;52.228;20.890;2023-07-13T02:37:28;17.63;;;11.68;;
42084;SDS011;27746;52.228;20.890;2023-07-13T02:39:56;16.90;;;10.98;;
42084;SDS011;27746;52.228;20.890;2023-07-13T02:42:23;15.13;;;10.02;;
42084;SDS011;27746;52.228;20.890;2023-07-13T02:44:50;13.30;;;10.25;;
42084;SDS011;27746;52.228;20.890;2023-07-13T02:47:19;16.13;;;10.93;;
42084;SDS011;27746;52.228;20.890;2023-07-13T02:49:45;13.65;;;9.57;;
42084;SDS011;27746;52.228;20.890;2023-07-13T02:52:13;12.40;;;9.02;;
42084;SDS011;27746;52.228;20.890;2023-07-13T02:54:40;16.95;;;10.48;;
42084;SDS011;27746;52.228;20.890;2023-07-13T02:57:07;16.27;;;10.10;;
42084;SDS011;27746;52.228;20.890;2023-07-13T02:59:34;17.10;;;10.10;;
42084;SDS011;27746;52.228;20.890;2023-07-13T03:02:02;15.75;;;10.65;;
42084;SDS011;27746;52.228;20.890;2023-07-13T03:04:30;17.58;;;10.30;;
42084;SDS011;27746;52.228;20.890;2023-07-13T03:06:57;17.85;;;9.88;;
42084;SDS011;27746;52.228;20.890;2023-07-13T03:09:24;14.52;;;10.75;;
42084;SDS011;27746;52.228;20.890;2023-07-13T03:11:52;17.52;;;9.65;;
42084;SDS011;27746;52.228;20.890;2023-07-13T03:14:20;17.05;;;10.60;;
42084;SDS011;27746;52.228;20.890;2023-07-13T03:16:47;13.77;;;9.80;;
42084;SDS011;27746;52.228;20.890;2023-07-13T03:19:14;17.13;;;9.82;;
42084;SDS011;27746;52.228;20.890;2023-07-13T03:21:43;13.90;;;9.80;;
42084;SDS011;27746;52.228;20.890;2023-07-13T03:24:10;15.38;;;10.52;;
42084;SDS011;27746;52.228;20.890;2023-07-13T03:26:38;11.77;;;8.70;;
42084;SDS011;27746;52.228;20.890;2023-07-13T03:29:05;14.75;;;10.30;;
42084;SDS011;27746;52.228;20.890;2023-07-13T03:31:32;16.98;;;11.32;;
42084;SDS011;27746;52.228;20.890;2023-07-13T03:34:02;15.18;;;10.50;;
42084;SDS011;27746;52.228;20.890;2023-07-13T03:36:30;16.45;;;10.30;;
42084;SDS011;27746;52.228;20.890;2023-07-13T03:39:00;14.65;;;9.80;;
42084;SDS011;27746;52.228;20.890;2023-07-13T03:41:29;15.50;;;10.30;;
42084;SDS011;27746;52.228;20.890;2023-07-13T03:43:56;17.65;;;12.02;;
42084;SDS011;27746;52.228;20.890;2023-07-13T03:46:24;20.02;;;10.45;;
42084;SDS011;27746;52.228;20.890;2023-07-13T03:48:51;19.05;;;11.15;;
42084;SDS011;27746;52.228;20.890;2023-07-13T03:51:18;17.63;;;10.63;;
42084;SDS011;27746;52.228;20.890;2023-07-13T03:53:46;13.25;;;9.55;;
42084;SDS011;27746;52.228;20.890;2023-07-13T03:56:16;17.65;;;10.60;;
42084;SDS011;27746;52.228;20.890;2023-07-13T03:58:44;15.93;;;10.50;;
42084;SDS011;27746;52.228;20.890;2023-07-13T04:01:12;18.90;;;11.18;;
42084;SDS011;27746;52.228;20.890;2023-07-13T04:03:41;19.35;;;11.25;;
42084;SDS011;27746;52.228;20.890;2023-07-13T04:06:12;14.38;;;10.23;;
42084;SDS011;27746;52.228;20.890;2023-07-13T04:08:46;15.50;;;11.57;;
42084;SDS011;27746;52.228;20.890;2023-07-13T04:11:16;15.98;;;10.38;;
42084;SDS011;27746;52.228;20.890;2023-07-13T04:13:43;19.98;;;11.45;;
42084;SDS011;27746;52.228;20.890;2023-07-13T04:16:10;18.00;;;10.88;;
42084;SDS011;27746;52.228;20.890;2023-07-13T04:18:38;19.02;;;9.98;;
42084;SDS011;27746;52.228;20.890;2023-07-13T04:21:04;20.35;;;11.45;;
42084;SDS011;27746;52.228;20.890;2023-07-13T04:23:31;24.27;;;12.10;;
42084;SDS011;27746;52.228;20.890;2023-07-13T04:25:58;17.83;;;11.65;;
42084;SDS011;27746;52.228;20.890;2023-07-13T04:28:27;17.15;;;10.30;;
42084;SDS011;27746;52.228;20.890;2023-07-13T04:30:54;16.25;;;10.88;;
42084;SDS011;27746;52.228;20.890;2023-07-13T04:33:21;22.40;;;11.52;;
42084;SDS011;27746;52.228;20.890;2023-07-13T04:35:48;26.10;;;12.05;;
42084;SDS011;27746;52.228;20.890;2023-07-13T04:40:49;19.27;;;10.98;;
42084;SDS011;27746;52.228;20.890;2023-07-13T04:43:17;18.48;;;9.70;;
42084;SDS011;27746;52.228;20.890;2023-07-13T04:45:45;18.67;;;11.68;;
42084;SDS011;27746;52.228;20.890;2023-07-13T04:48:12;19.77;;;11.27;;
42084;SDS011;27746;52.228;20.890;2023-07-13T04:50:39;21.20;;;11.40;;
42084;SDS011;27746;52.228;20.890;2023-07-13T04:53:08;16.80;;;12.05;;
42084;SDS011;27746;52.228;20.890;2023-07-13T04:55:35;16.60;;;10.63;;
42084;SDS011;27746;52.228;20.890;2023-07-13T04:58:02;19.75;;;10.00;;
42084;SDS011;27746;52.228;20.890;2023-07-13T05:00:30;19.13;;;11.63;;
42084;SDS011;27746;52.228;20.890;2023-07-13T05:02:58;16.77;;;12.02;;
42084;SDS011;27746;52.228;20.890;2023-07-13T05:05:25;19.70;;;13.73;;
42084;SDS011;27746;52.228;20.890;2023-07-13T05:07:53;16.40;;;11.40;;
42084;SDS011;27746;52.228;20.890;2023-07-13T05:10:20;14.95;;;11.10;;
42084;SDS011;27746;52.228;20.890;2023-07-13T05:12:48;21.73;;;11.98;;
42084;SDS011;27746;52.228;20.890;2023-07-13T05:15:16;17.25;;;11.90;;
42084;SDS011;27746;52.228;20.890;2023-07-13T05:17:46;16.27;;;10.57;;
42084;SDS011;27746;52.228;20.890;2023-07-13T05:20:14;16.92;;;11.05;;
42084;SDS011;27746;52.228;20.890;2023-07-13T05:22:43;19.35;;;11.75;;
42084;SDS011;27746;52.228;20.890;2023-07-13T05:25:11;16.85;;;11.25;;
42084;SDS011;27746;52.228;20.890;2023-07-13T05:27:39;18.38;;;12.98;;
42084;SDS011;27746;52.228;20.890;2023-07-13T05:30:06;20.23;;;13.45;;
42084;SDS011;27746;52.228;20.890;2023-07-13T05:32:36;17.73;;;12.43;;
42084;SDS011;27746;52.228;20.890;2023-07-13T05:35:03;19.20;;;11.38;;
42084;SDS011;27746;52.228;20.890;2023-07-13T05:37:31;18.75;;;12.32;;
42084;SDS011;27746;52.228;20.890;2023-07-13T05:39:58;19.98;;;12.68;;
42084;SDS011;27746;52.228;20.890;2023-07-13T05:42:25;20.95;;;13.45;;
42084;SDS011;27746;52.228;20.890;2023-07-13T14:03:37;16.45;;;4.53;;
42084;SDS011;27746;52.228;20.890;2023-07-13T14:06:03;13.52;;;7.43;;
42084;SDS011;27746;52.228;20.890;2023-07-13T14:08:31;11.07;;;5.20;;
42084;SDS011;27746;52.228;20.890;2023-07-13T14:10:58;8.45;;;4.60;;
42084;SDS011;27746;52.228;20.890;2023-07-13T14:13:26;9.50;;;4.40;;
42084;SDS011;27746;52.228;20.890;2023-07-13T14:15:54;8.35;;;5.00;;
42084;SDS011;27746;52.228;20.890;2023-07-13T14:18:21;8.82;;;5.32;;
42084;SDS011;27746;52.228;20.890;2023-07-13T14:20:52;10.30;;;4.75;;
42084;SDS011;27746;52.228;20.890;2023-07-13T14:23:20;9.18;;;5.05;;
42084;SDS011;27746;52.228;20.890;2023-07-13T14:25:47;9.80;;;5.35;;
42084;SDS011;27746;52.228;20.890;2023-07-13T14:28:17;9.43;;;4.93;;
42084;SDS011;27746;52.228;20.890;2023-07-13T14:30:47;11.43;;;4.80;;
42084;SDS011;27746;52.228;20.890;2023-07-13T14:33:14;9.45;;;5.60;;
42084;SDS011;27746;52.228;20.890;2023-07-13T14:35:42;10.55;;;5.93;;
42084;SDS011;27746;52.228;20.890;2023-07-13T14:38:11;9.52;;;4.90;;
42084;SDS011;27746;52.228;20.890;2023-07-13T14:40:41;9.43;;;5.43;;
42084;SDS011;27746;52.228;20.890;2023-07-13T14:43:09;11.55;;;6.10;;
42084;SDS011;27746;52.228;20.890;2023-07-13T14:45:37;11.25;;;6.10;;
42084;SDS011;27746;52.228;20.890;2023-07-13T14:48:09;12.77;;;8.10;;
42084;SDS011;27746;52.228;20.890;2023-07-13T14:50:41;10.27;;;7.30;;
42084;SDS011;27746;52.228;20.890;2023-07-13T14:53:10;11.65;;;7.38;;
42084;SDS011;27746;52.228;20.890;2023-07-13T14:55:37;11.55;;;7.35;;
42084;SDS011;27746;52.228;20.890;2023-07-13T14:58:05;15.63;;;8.68;;
42084;SDS011;27746;52.228;20.890;2023-07-13T15:00:35;10.88;;;7.57;;
42084;SDS011;27746;52.228;20.890;2023-07-13T15:03:02;8.80;;;6.68;;
42084;SDS011;27746;52.228;20.890;2023-07-13T15:05:31;10.10;;;7.32;;
42084;SDS011;27746;52.228;20.890;2023-07-13T15:07:59;10.48;;;6.60;;
42084;SDS011;27746;52.228;20.890;2023-07-13T15:10:30;10.93;;;7.15;;
42084;SDS011;27746;52.228;20.890;2023-07-13T15:12:59;10.18;;;7.10;;
42084;SDS011;27746;52.228;20.890;2023-07-13T15:15:29;9.73;;;6.28;;
42084;SDS011;27746;52.228;20.890;2023-07-13T15:17:58;13.32;;;6.43;;
42084;SDS011;27746;52.228;20.890;2023-07-13T15:20:27;10.23;;;6.47;;
42084;SDS011;27746;52.228;20.890;2023-07-13T15:22:56;11.07;;;8.15;;
42084;SDS011;27746;52.228;20.890;2023-07-13T15:25:24;14.07;;;7.53;;
42084;SDS011;27746;52.228;20.890;2023-07-13T15:27:54;12.18;;;7.03;;
42084;SDS011;27746;52.228;20.890;2023-07-13T15:30:22;11.38;;;7.13;;
42084;SDS011;27746;52.228;20.890;2023-07-13T15:32:51;10.73;;;7.50;;
42084;SDS011;27746;52.228;20.890;2023-07-13T15:35:19;11.45;;;7.68;;
42084;SDS011;27746;52.228;20.890;2023-07-13T15:37:48;13.23;;;7.57;;
42084;SDS011;27746;52.228;20.890;2023-07-13T15:40:16;12.82;;;7.95;;
42084;SDS011;27746;52.228;20.890;2023-07-13T15:42:43;13.32;;;7.53;;
42084;SDS011;27746;52.228;20.890;2023-07-13T15:45:16;10.20;;;7.35;;
42084;SDS011;27746;52.228;20.890;2023-07-13T15:47:45;11.98;;;7.68;;
42084;SDS011;27746;52.228;20.890;2023-07-13T15:50:13;11.63;;;8.02;;
42084;SDS011;27746;52.228;20.890;2023-07-13T15:52:42;11.70;;;7.70;;
42084;SDS011;27746;52.228;20.890;2023-07-13T15:55:10;10.68;;;6.80;;
42084;SDS011;27746;52.228;20.890;2023-07-13T15:57:38;10.60;;;6.88;;
42084;SDS011;27746;52.228;20.890;2023-07-13T16:00:16;10.95;;;7.20;;
42084;SDS011;27746;52.228;20.890;2023-07-13T16:02:46;11.05;;;6.97;;
42084;SDS011;27746;52.228;20.890;2023-07-13T16:05:14;11.70;;;7.10;;
42084;SDS011;27746;52.228;20.890;2023-07-13T16:07:42;10.20;;;6.75;;
42084;SDS011;27746;52.228;20.890;2023-07-13T16:10:14;12.07;;;7.13;;
42084;SDS011;27746;52.228;20.890;2023-07-13T16:12:43;14.07;;;6.97;;
42084;SDS011;27746;52.228;20.890;2023-07-13T16:15:12;12.05;;;6.97;;
42084;SDS011;27746;52.228;20.890;2023-07-13T16:17:42;11.02;;;7.40;;
42084;SDS011;27746;52.228;20.890;2023-07-13T16:20:09;12.10;;;7.35;;
42084;SDS011;27746;52.228;20.890;2023-07-13T16:22:38;12.82;;;7.70;;
42084;SDS011;27746;52.228;20.890;2023-07-13T16:25:12;14.77;;;9.63;;
42084;SDS011;27746;52.228;20.890;2023-07-13T16:27:41;12.20;;;7.57;;
42084;SDS011;27746;52.228;20.890;2023-07-13T16:30:13;10.95;;;8.07;;
42084;SDS011;27746;52.228;20.890;2023-07-13T16:32:44;10.65;;;8.10;;
42084;SDS011;27746;52.228;20.890;2023-07-13T16:35:11;13.90;;;8.60;;
42084;SDS011;27746;52.228;20.890;2023-07-13T16:37:38;9.88;;;7.75;;
42084;SDS011;27746;52.228;20.890;2023-07-13T16:40:13;9.93;;;7.20;;
42084;SDS011;27746;52.228;20.890;2023-07-13T16:42:47;12.98;;;8.10;;
42084;SDS011;27746;52.228;20.890;2023-07-13T16:45:14;8.25;;;6.13;;
42084;SDS011;27746;52.228;20.890;2023-07-13T16:47:42;10.15;;;6.45;;
42084;SDS011;27746;52.228;20.890;2023-07-13T16:50:16;9.73;;;6.95;;
42084;SDS011;27746;52.228;20.890;2023-07-13T16:52:44;11.20;;;7.43;;
42084;SDS011;27746;52.228;20.890;2023-07-13T16:55:12;9.55;;;6.90;;
42084;SDS011;27746;52.228;20.890;2023-07-13T16:57:42;13.43;;;7.72;;
42084;SDS011;27746;52.228;20.890;2023-07-13T17:00:16;10.05;;;6.57;;
42084;SDS011;27746;52.228;20.890;2023-07-13T17:02:49;9.00;;;6.95;;
42084;SDS011;27746;52.228;20.890;2023-07-13T17:05:19;12.15;;;6.85;;
42084;SDS011;27746;52.228;20.890;2023-07-13T17:07:46;9.32;;;6.22;;
42084;SDS011;27746;52.228;20.890;2023-07-13T17:10:18;9.18;;;6.47;;
42084;SDS011;27746;52.228;20.890;2023-07-13T17:15:14;9.73;;;6.88;;
42084;SDS011;27746;52.228;20.890;2023-07-13T17:17:41;13.65;;;8.13;;
42084;SDS011;27746;52.228;20.890;2023-07-13T17:20:16;10.35;;;7.13;;
42084;SDS011;27746;52.228;20.890;2023-07-13T17:22:48;11.88;;;7.38;;
42084;SDS011;27746;52.228;20.890;2023-07-13T17:25:16;10.43;;;7.15;;
42084;SDS011;27746;52.228;20.890;2023-07-13T17:27:44;11.32;;;6.90;;
42084;SDS011;27746;52.228;20.890;2023-07-13T17:30:14;9.13;;;6.03;;
42084;SDS011;27746;52.228;20.890;2023-07-13T17:32:43;12.13;;;7.18;;
42084;SDS011;27746;52.228;20.890;2023-07-13T17:35:15;9.88;;;7.57;;
42084;SDS011;27746;52.228;20.890;2023-07-13T17:37:48;13.73;;;8.27;;
42084;SDS011;27746;52.228;20.890;2023-07-13T17:40:16;13.82;;;8.25;;
42084;SDS011;27746;52.228;20.890;2023-07-13T17:42:43;11.02;;;8.13;;
42084;SDS011;27746;52.228;20.890;2023-07-13T17:45:11;13.48;;;8.20;;
42084;SDS011;27746;52.228;20.890;2023-07-13T17:47:45;11.77;;;7.53;;
42084;SDS011;27746;52.228;20.890;2023-07-13T17:50:15;12.25;;;7.60;;
42084;SDS011;27746;52.228;20.890;2023-07-13T17:55:16;10.13;;;8.43;;
42084;SDS011;27746;52.228;20.890;2023-07-13T17:57:45;14.93;;;10.00;;
42084;SDS011;27746;52.228;20.890;2023-07-13T18:00:13;13.75;;;9.00;;
42084;SDS011;27746;52.228;20.890;2023-07-13T18:03:02;11.82;;;8.32;;
42084;SDS011;27746;52.228;20.890;2023-07-13T18:05:32;9.30;;;7.30;;
42084;SDS011;27746;52.228;20.890;2023-07-13T18:08:02;13.23;;;8.38;;
42084;SDS011;27746;52.228;20.890;2023-07-13T18:10:30;10.68;;;7.80;;
42084;SDS011;27746;52.228;20.890;2023-07-13T18:12:57;10.90;;;7.05;;
42084;SDS011;27746;52.228;20.890;2023-07-13T18:15:27;11.43;;;6.80;;
42084;SDS011;27746;52.228;20.890;2023-07-13T18:17:57;8.48;;;6.47;;
42084;SDS011;27746;52.228;20.890;2023-07-13T18:20:28;8.95;;;6.47;;
42084;SDS011;27746;52.228;20.890;2023-07-13T18:22:56;13.45;;;6.80;;
42084;SDS011;27746;52.228;20.890;2023-07-13T18:25:25;9.50;;;6.13;;
42084;SDS011;27746;52.228;20.890;2023-07-13T18:27:52;10.63;;;6.80;;
42084;SDS011;27746;52.228;20.890;2023-07-13T18:30:20;8.30;;;6.25;;
42084;SDS011;27746;52.228;20.890;2023-07-13T18:32:48;8.98;;;6.22;;
42084;SDS011;27746;52.228;20.890;2023-07-13T18:35:19;9.90;;;6.72;;
42084;SDS011;27746;52.228;20.890;2023-07-13T18:37:52;11.40;;;6.45;;
42084;SDS011;27746;52.228;20.890;2023-07-13T18:40:19;8.90;;;6.18;;
42084;SDS011;27746;52.228;20.890;2023-07-13T18:42:51;8.15;;;6.22;;
42084;SDS011;27746;52.228;20.890;2023-07-13T18:45:19;9.00;;;6.32;;
42084;SDS011;27746;52.228;20.890;2023-07-13T18:47:47;8.57;;;6.10;;
42084;SDS011;27746;52.228;20.890;2023-07-13T18:50:20;11.55;;;7.30;;
42084;SDS011;27746;52.228;20.890;2023-07-13T18:52:50;12.90;;;7.13;;
42084;SDS011;27746;52.228;20.890;2023-07-13T18:55:18;11.20;;;7.72;;
42084;SDS011;27746;52.228;20.890;2023-07-13T18:57:47;9.90;;;6.63;;
42084;SDS011;27746;52.228;20.890;2023-07-13T19:00:21;12.57;;;7.55;;
42084;SDS011;27746;52.228;20.890;2023-07-13T19:02:52;13.77;;;8.45;;
42084;SDS011;27746;52.228;20.890;2023-07-13T19:05:21;12.55;;;8.07;;
42084;SDS011;27746;52.228;20.890;2023-07-13T19:07:50;11.95;;;7.35;;
42084;SDS011;27746;52.228;20.890;2023-07-13T19:10:18;10.25;;;6.75;;
42084;SDS011;27746;52.228;20.890;2023-07-13T19:12:48;10.50;;;6.13;;
42084;SDS011;27746;52.228;20.890;2023-07-13T19:15:19;11.55;;;6.32;;
42084;SDS011;27746;52.228;20.890;2023-07-13T19:17:51;8.10;;;5.38;;
42084;SDS011;27746;52.228;20.890;2023-07-13T19:20:18;8.38;;;5.95;;
42084;SDS011;27746;52.228;20.890;2023-07-13T19:22:49;11.80;;;6.30;;
42084;SDS011;27746;52.228;20.890;2023-07-13T19:25:19;9.85;;;5.75;;
42084;SDS011;27746;52.228;20.890;2023-07-13T19:27:46;10.25;;;6.22;;
42084;SDS011;27746;52.228;20.890;2023-07-13T19:30:15;11.43;;;6.05;;
42084;SDS011;27746;52.228;20.890;2023-07-13T19:32:44;7.45;;;5.03;;
42084;SDS011;27746;52.228;20.890;2023-07-13T19:35:12;9.10;;;6.47;;
42084;SDS011;27746;52.228;20.890;2023-07-13T19:37:40;11.25;;;6.68;;
42084;SDS011;27746;52.228;20.890;2023-07-13T19:40:14;13.77;;;6.88;;
42084;SDS011;27746;52.228;20.890;2023-07-13T19:42:44;9.90;;;6.07;;
42084;SDS011;27746;52.228;20.890;2023-07-13T19:45:15;10.10;;;6.18;;
42084;SDS011;27746;52.228;20.890;2023-07-13T19:47:45;10.93;;;6.87;;
42084;SDS011;27746;52.228;20.890;2023-07-13T19:50:14;11.18;;;6.97;;
42084;SDS011;27746;52.228;20.890;2023-07-13T19:52:44;11.18;;;6.78;;
42084;SDS011;27746;52.228;20.890;2023-07-13T19:55:14;15.43;;;9.48;;
42084;SDS011;27746;52.228;20.890;2023-07-13T19:57:44;11.45;;;8.00;;
42084;SDS011;27746;52.228;20.890;2023-07-13T20:00:15;10.93;;;7.78;;
42084;SDS011;27746;52.228;20.890;2023-07-13T20:02:45;11.53;;;7.67;;
42084;SDS011;27746;52.228;20.890;2023-07-13T20:05:13;11.57;;;8.85;;
42084;SDS011;27746;52.228;20.890;2023-07-13T20:07:42;12.75;;;8.68;;
42084;SDS011;27746;52.228;20.890;2023-07-13T20:10:16;11.93;;;8.35;;
42084;SDS011;27746;52.228;20.890;2023-07-13T20:12:46;12.38;;;8.85;;
42084;SDS011;27746;52.228;20.890;2023-07-13T20:15:14;12.55;;;8.23;;
42084;SDS011;27746;52.228;20.890;2023-07-13T20:17:42;11.07;;;7.97;;
42084;SDS011;27746;52.228;20.890;2023-07-13T20:20:17;10.10;;;8.00;;
42084;SDS011;27746;52.228;20.890;2023-07-13T20:22:47;10.30;;;7.47;;
42084;SDS011;27746;52.228;20.890;2023-07-13T20:25:15;11.15;;;7.93;;
42084;SDS011;27746;52.228;20.890;2023-07-13T20:27:43;11.32;;;7.47;;
42084;SDS011;27746;52.228;20.890;2023-07-13T20:30:11;10.73;;;7.07;;
42084;SDS011;27746;52.228;20.890;2023-07-13T20:32:38;10.13;;;7.68;;
42084;SDS011;27746;52.228;20.890;2023-07-13T20:35:08;11.68;;;7.60;;
42084;SDS011;27746;52.228;20.890;2023-07-13T20:37:53;13.10;;;7.20;;
42084;SDS011;27746;52.228;20.890;2023-07-13T20:40:21;10.43;;;7.82;;
42084;SDS011;27746;52.228;20.890;2023-07-13T20:42:49;9.57;;;7.35;;
42084;SDS011;27746;52.228;20.890;2023-07-13T20:45:16;9.05;;;7.65;;
42084;SDS011;27746;52.228;20.890;2023-07-13T20:47:45;12.07;;;7.20;;
42084;SDS011;27746;52.228;20.890;2023-07-13T20:50:20;14.43;;;7.93;;
42084;SDS011;27746;52.228;20.890;2023-07-13T20:52:48;10.32;;;7.15;;
42084;SDS011;27746;52.228;20.890;2023-07-13T20:55:18;11.60;;;7.25;;
42084;SDS011;27746;52.228;20.890;2023-07-13T20:57:47;9.68;;;6.72;;
42084;SDS011;27746;52.228;20.890;2023-07-13T21:00:15;11.85;;;7.10;;
42084;SDS011;27746;52.228;20.890;2023-07-13T21:02:44;8.82;;;6.80;;
42084;SDS011;27746;52.228;20.890;2023-07-13T21:05:13;10.93;;;7.05;;
42084;SDS011;27746;52.228;20.890;2023-07-13T21:07:45;11.90;;;8.25;;
42084;SDS011;27746;52.228;20.890;2023-07-13T21:10:14;9.30;;;7.15;;
42084;SDS011;27746;52.228;20.890;2023-07-13T21:12:41;11.85;;;7.53;;
42084;SDS011;27746;52.228;20.890;2023-07-13T21:15:09;12.82;;;8.15;;
42084;SDS011;27746;52.228;20.890;2023-07-13T21:17:36;12.07;;;8.00;;
42084;SDS011;27746;52.228;20.890;2023-07-13T21:20:09;11.00;;;7.78;;
42084;SDS011;27746;52.228;20.890;2023-07-13T21:22:41;10.02;;;7.22;;
42084;SDS011;27746;52.228;20.890;2023-07-13T21:25:13;8.95;;;6.32;;
42084;SDS011;27746;52.228;20.890;2023-07-13T21:27:41;10.60;;;6.65;;
42084;SDS011;27746;52.228;20.890;2023-07-13T21:30:11;10.95;;;7.95;;
42084;SDS011;27746;52.228;20.890;2023-07-13T21:32:40;11.13;;;7.78;;
42084;SDS011;27746;52.228;20.890;2023-07-13T21:35:15;10.77;;;7.15;;
42084;SDS011;27746;52.228;20.890;2023-07-13T21:37:47;10.68;;;7.15;;
42084;SDS011;27746;52.228;20.890;2023-07-13T21:40:16;11.98;;;8.20;;
42084;SDS011;27746;52.228;20.890;2023-07-13T21:42:45;12.73;;;9.05;;
42084;SDS011;27746;52.228;20.890;2023-07-13T21:45:21;11.98;;;7.75;;
42084;SDS011;27746;52.228;20.890;2023-07-13T21:47:49;12.32;;;7.88;;
42084;SDS011;27746;52.228;20.890;2023-07-13T21:50:17;12.10;;;7.95;;
42084;SDS011;27746;52.228;20.890;2023-07-13T21:52:46;12.45;;;7.30;;
42084;SDS011;27746;52.228;20.890;2023-07-13T21:55:17;14.55;;;9.07;;
42084;SDS011;27746;52.228;20.890;2023-07-13T21:57:47;10.90;;;7.97;;
42084;SDS011;27746;52.228;20.890;2023-07-13T22:00:17;13.00;;;8.02;;
42084;SDS011;27746;52.228;20.890;2023-07-13T22:02:46;10.73;;;8.43;;
42084;SDS011;27746;52.228;20.890;2023-07-13T22:05:14;11.43;;;8.93;;
42084;SDS011;27746;52.228;20.890;2023-07-13T22:07:42;9.82;;;7.93;;
42084;SDS011;27746;52.228;20.890;2023-07-13T22:10:13;12.50;;;8.27;;
42084;SDS011;27746;52.228;20.890;2023-07-13T22:12:46;13.93;;;8.52;;
42084;SDS011;27746;52.228;20.890;2023-07-13T22:15:14;14.35;;;8.90;;
42084;SDS011;27746;52.228;20.890;2023-07-13T22:17:44;14.35;;;9.95;;
42084;SDS011;27746;52.228;20.890;2023-07-13T22:20:14;15.25;;;10.35;;
42084;SDS011;27746;52.228;20.890;2023-07-13T22:22:43;14.55;;;9.00;;
42084;SDS011;27746;52.228;20.890;2023-07-13T22:25:10;20.65;;;12.05;;
42084;SDS011;27746;52.228;20.890;2023-07-13T22:27:38;17.15;;;11.07;;
42084;SDS011;27746;52.228;20.890;2023-07-13T22:30:08;18.05;;;10.55;;
42084;SDS011;27746;52.228;20.890;2023-07-13T22:32:37;15.93;;;10.35;;
42084;SDS011;27746;52.228;20.890;2023-07-13T22:35:05;13.77;;;10.25;;
42084;SDS011;27746;52.228;20.890;2023-07-13T22:37:35;12.70;;;9.90;;
42084;SDS011;27746;52.228;20.890;2023-07-13T22:40:02;12.88;;;9.50;;
42084;SDS011;27746;52.228;20.890;2023-07-13T22:42:35;12.25;;;9.63;;
42084;SDS011;27746;52.228;20.890;2023-07-13T22:45:06;14.25;;;9.48;;
42084;SDS011;27746;52.228;20.890;2023-07-13T22:47:35;14.00;;;9.10;;
42084;SDS011;27746;52.228;20.890;2023-07-13T22:50:08;11.25;;;9.52;;
42084;SDS011;27746;52.228;20.890;2023-07-13T22:52:39;13.95;;;9.18;;
42084;SDS011;27746;52.228;20.890;2023-07-13T22:55:09;14.07;;;8.50;;
42084;SDS011;27746;52.228;20.890;2023-07-13T22:57:38;13.13;;;9.00;;